createdAt,value
2023-05-06T00:00:13.127Z,13.14
2023-05-06T00:05:51.548Z,15.42
2023-05-06T00:11:16.028Z,15.87
2023-05-06T00:16:40.320Z,14.53
2023-05-06T00:22:04.801Z,13.59
2023-05-06T00:27:28.955Z,13.00
2023-05-06T00:32:52.805Z,12.64
2023-05-06T00:38:17.885Z,12.34
2023-05-06T00:43:42.758Z,12.13
2023-05-06T00:49:07.219Z,12.01
2023-05-06T00:54:31.444Z,11.98
2023-05-06T00:59:55.724Z,11.99
2023-05-06T01:05:26.471Z,11.93
2023-05-06T01:11:00.597Z,12.86
2023-05-06T01:16:27.494Z,15.12
2023-05-06T01:21:55.462Z,16.31
2023-05-06T01:27:20.723Z,17.08
2023-05-06T01:33:04.647Z,17.55
2023-05-06T01:38:41.403Z,16.90
2023-05-06T01:44:07.687Z,15.07
2023-05-06T01:49:33.143Z,13.81
2023-05-06T01:54:57.137Z,12.85
2023-05-06T02:00:21.612Z,12.32
2023-05-06T02:05:46.199Z,11.95
2023-05-06T02:11:10.145Z,12.54
2023-05-06T02:16:35.691Z,14.54
2023-05-06T02:22:00.686Z,15.61
2023-05-06T02:27:25.164Z,16.17
2023-05-06T02:32:49.314Z,15.75
2023-05-06T02:38:13.952Z,13.90
2023-05-06T02:43:37.844Z,12.56
2023-05-06T02:49:02.481Z,12.56
2023-05-06T02:54:30.544Z,14.21
2023-05-06T02:59:55.127Z,15.03
2023-05-06T03:05:19.205Z,15.43
2023-05-06T03:10:43.475Z,15.83
2023-05-06T03:16:13.739Z,16.08
2023-05-06T03:21:39.385Z,16.25
2023-05-06T03:27:04.434Z,15.35
2023-05-06T03:32:29.832Z,13.36
2023-05-06T03:37:54.277Z,11.99
2023-05-06T03:43:18.844Z,12.11
2023-05-06T03:48:44.632Z,13.78
2023-05-06T03:54:11.722Z,14.75
2023-05-06T03:59:38.300Z,15.17
2023-05-06T04:05:04.598Z,15.32
2023-05-06T04:10:29.504Z,15.48
2023-05-06T04:15:57.891Z,15.69
2023-05-06T04:21:28.158Z,15.87
2023-05-06T04:26:59.654Z,15.98
2023-05-06T04:32:25.998Z,15.80
2023-05-06T04:37:51.246Z,15.77
2023-05-06T04:43:20.654Z,15.88
2023-05-06T04:48:45.810Z,14.94
2023-05-06T04:54:10.860Z,13.09
2023-05-06T04:59:36.437Z,11.92
2023-05-06T05:05:01.487Z,12.11
2023-05-06T05:10:26.588Z,13.78
2023-05-06T05:15:55.191Z,14.59
2023-05-06T05:21:21.339Z,14.94
2023-05-06T05:26:46.323Z,15.20
2023-05-06T05:32:12.727Z,15.50
2023-05-06T05:37:37.814Z,15.62
2023-05-06T05:43:03.281Z,15.67
2023-05-06T05:48:33.000Z,15.67
2023-05-06T05:53:58.600Z,14.13
2023-05-06T05:59:23.279Z,12.49
2023-05-06T06:04:49.722Z,13.06
2023-05-06T06:10:16.203Z,14.25
2023-05-06T06:15:42.494Z,14.75
2023-05-06T06:21:08.252Z,14.97
2023-05-06T06:26:33.435Z,15.08
2023-05-06T06:31:58.903Z,15.21
2023-05-06T06:37:24.451Z,15.43
2023-05-06T06:42:51.789Z,15.56
2023-05-06T06:48:52.174Z,15.65
2023-05-06T06:54:22.349Z,15.65
2023-05-06T06:59:51.018Z,15.73
2023-05-06T07:05:16.931Z,15.98
2023-05-06T07:10:43.155Z,16.20
2023-05-06T07:16:10.168Z,15.68
2023-05-06T07:21:41.123Z,13.84
2023-05-06T07:27:10.615Z,12.53
2023-05-06T07:32:37.521Z,12.61
2023-05-06T07:38:03.978Z,14.30
2023-05-06T07:43:28.446Z,15.38
2023-05-06T07:48:53.200Z,16.05
2023-05-06T07:54:17.456Z,16.47
2023-05-06T07:59:43.067Z,16.61
2023-05-06T08:05:09.232Z,16.81
2023-05-06T08:10:33.942Z,16.88
2023-05-06T08:15:58.866Z,16.37
2023-05-06T08:21:23.293Z,14.71
2023-05-06T08:26:48.248Z,13.57
2023-05-06T08:32:12.729Z,12.80
2023-05-06T08:37:36.866Z,13.20
2023-05-06T08:43:04.119Z,15.12
2023-05-06T08:48:30.252Z,16.01
2023-05-06T08:53:58.952Z,16.76
2023-05-06T08:59:31.480Z,17.19
2023-05-06T09:04:57.089Z,17.40
2023-05-06T09:10:21.736Z,17.72
2023-05-06T09:15:48.484Z,17.36
2023-05-06T09:21:14.232Z,15.60
2023-05-06T09:26:41.342Z,14.48
2023-05-06T09:32:09.144Z,13.75
2023-05-06T09:37:33.832Z,14.34
2023-05-06T09:42:58.407Z,16.35
2023-05-06T09:48:22.867Z,17.41
2023-05-06T09:53:47.970Z,17.86
2023-05-06T09:59:15.153Z,18.13
2023-05-06T10:04:42.467Z,17.60
2023-05-06T10:10:14.613Z,15.75
2023-05-06T10:15:39.740Z,14.35
2023-05-06T10:21:09.536Z,14.44
2023-05-06T10:26:37.872Z,16.00
2023-05-06T10:32:04.400Z,16.70
2023-05-06T10:37:32.308Z,17.08
2023-05-06T10:43:27.975Z,17.47
2023-05-06T10:49:06.973Z,17.74
2023-05-06T10:54:31.478Z,17.73
2023-05-06T10:59:56.262Z,17.96
2023-05-06T11:05:21.281Z,17.39
2023-05-06T11:10:46.087Z,15.24
2023-05-06T11:16:11.456Z,13.79
2023-05-06T11:21:37.159Z,13.85
2023-05-06T11:27:02.184Z,15.52
2023-05-06T11:32:29.974Z,16.29
2023-05-06T11:37:55.382Z,16.80
2023-05-06T11:43:20.537Z,17.05
2023-05-06T11:48:44.988Z,17.05
2023-05-06T11:54:11.306Z,16.84
2023-05-06T11:59:38.305Z,16.97
2023-05-06T12:05:03.405Z,17.03
2023-05-06T12:10:28.228Z,17.16
2023-05-06T12:15:55.804Z,17.39
2023-05-06T12:21:27.213Z,17.48
2023-05-06T12:26:52.298Z,17.59
2023-05-06T12:32:17.003Z,17.19
2023-05-06T12:37:41.629Z,15.56
2023-05-06T12:43:05.812Z,14.43
2023-05-06T12:48:30.656Z,13.64
2023-05-06T12:53:55.223Z,13.97
2023-05-06T12:59:19.465Z,15.88
2023-05-06T13:04:44.547Z,16.85
2023-05-06T13:10:11.282Z,17.39
2023-05-06T13:15:37.778Z,17.79
2023-05-06T13:21:02.492Z,17.83
2023-05-06T13:26:27.138Z,17.79
2023-05-06T13:31:51.977Z,17.96
2023-05-06T13:37:16.563Z,17.49
2023-05-06T13:42:41.957Z,15.70
2023-05-06T13:48:06.395Z,14.44
2023-05-06T13:53:31.351Z,13.75
2023-05-06T13:58:55.835Z,13.29
2023-05-06T14:04:19.702Z,13.83
2023-05-06T14:09:44.334Z,15.72
2023-05-06T14:15:10.700Z,16.66
2023-05-06T14:20:36.673Z,17.14
2023-05-06T14:26:01.803Z,17.16
2023-05-06T14:31:27.077Z,17.18
2023-05-06T14:36:51.421Z,17.37
2023-05-06T14:42:16.113Z,17.70
2023-05-06T14:47:41.418Z,17.75
2023-05-06T14:53:06.663Z,17.55
2023-05-06T14:58:32.329Z,17.68
2023-05-06T15:04:00.575Z,17.71
2023-05-06T15:09:31.578Z,17.73
2023-05-06T15:14:55.807Z,17.80
2023-05-06T15:20:20.248Z,17.25
2023-05-06T15:25:45.587Z,15.20
2023-05-06T15:31:11.257Z,13.72
2023-05-06T15:36:36.032Z,13.71
2023-05-06T15:42:01.504Z,15.23
2023-05-06T15:47:26.777Z,16.01
2023-05-06T15:52:51.041Z,16.18
2023-05-06T15:58:16.160Z,16.11
2023-05-06T16:03:43.780Z,16.31
2023-05-06T16:09:09.200Z,16.35
2023-05-06T16:14:33.823Z,16.50
2023-05-06T16:19:58.246Z,16.43
2023-05-06T16:25:23.881Z,16.08
2023-05-06T16:30:48.855Z,16.09
2023-05-06T16:36:13.771Z,16.24
2023-05-06T16:41:38.165Z,16.46
2023-05-06T16:47:02.260Z,16.55
2023-05-06T16:52:26.556Z,16.69
2023-05-06T16:57:51.690Z,16.87
2023-05-06T17:03:16.609Z,16.37
2023-05-06T17:08:42.031Z,14.22
2023-05-06T17:14:06.472Z,12.54
2023-05-06T17:19:30.749Z,12.46
2023-05-06T17:24:55.380Z,14.30
2023-05-06T17:30:21.111Z,15.36
2023-05-06T17:35:46.354Z,15.89
2023-05-06T17:41:11.479Z,16.21
2023-05-06T17:46:36.168Z,16.05
2023-05-06T17:52:01.734Z,16.03
2023-05-06T17:57:26.223Z,16.25
2023-05-06T18:02:51.156Z,16.37
2023-05-06T18:08:15.888Z,16.12
2023-05-06T18:13:41.145Z,16.23
2023-05-06T18:19:05.866Z,16.13
2023-05-06T18:24:30.043Z,16.16
2023-05-06T18:29:54.521Z,16.43
2023-05-06T18:35:19.463Z,15.94
2023-05-06T18:40:46.358Z,13.93
2023-05-06T18:46:12.145Z,12.40
2023-05-06T18:51:37.230Z,11.40
2023-05-06T18:57:02.772Z,11.79
2023-05-06T19:02:27.230Z,13.92
2023-05-06T19:07:52.007Z,15.01
2023-05-06T19:13:17.432Z,15.54
2023-05-06T19:18:42.087Z,15.76
2023-05-06T19:24:06.934Z,15.78
2023-05-06T19:29:31.121Z,15.54
2023-05-06T19:34:55.702Z,15.18
2023-05-06T19:40:20.076Z,15.18
2023-05-06T19:45:44.668Z,15.30
2023-05-06T19:51:10.222Z,15.37
2023-05-06T19:56:34.710Z,15.16
2023-05-06T20:02:02.010Z,15.14
2023-05-06T20:07:26.712Z,15.26
2023-05-06T20:12:51.637Z,15.24
2023-05-06T20:18:17.010Z,15.32
2023-05-06T20:23:41.998Z,15.36
2023-05-06T20:29:06.495Z,15.30
2023-05-06T20:34:30.843Z,15.24
2023-05-06T20:39:55.794Z,15.22
2023-05-06T20:45:20.569Z,14.96
2023-05-06T20:50:45.716Z,14.80
2023-05-06T20:56:26.394Z,14.79
2023-05-06T21:01:51.090Z,14.89
2023-05-06T21:07:15.402Z,14.99
2023-05-06T21:12:57.310Z,15.22
2023-05-06T21:18:38.893Z,15.25
2023-05-06T21:24:20.796Z,15.21
2023-05-06T21:30:03.178Z,14.90
2023-05-06T21:35:45.034Z,14.74
2023-05-06T21:41:09.832Z,14.72
2023-05-06T21:46:34.724Z,14.82
2023-05-06T21:51:59.912Z,14.78
2023-05-06T21:57:25.665Z,14.77
2023-05-06T22:02:53.660Z,14.65
2023-05-06T22:08:18.156Z,14.69
2023-05-06T22:13:42.591Z,14.62
2023-05-06T22:19:06.810Z,14.63
2023-05-06T22:24:31.957Z,14.54
2023-05-06T22:29:57.115Z,14.44
2023-05-06T22:35:22.182Z,14.46
2023-05-06T22:40:46.313Z,14.48
2023-05-06T22:46:10.179Z,14.36
2023-05-06T22:51:34.608Z,14.30
2023-05-06T22:56:59.877Z,14.26
2023-05-06T23:02:24.489Z,14.41
2023-05-06T23:07:49.398Z,14.43
2023-05-06T23:13:13.335Z,14.40
2023-05-06T23:18:37.327Z,14.40
2023-05-06T23:24:02.143Z,14.23
2023-05-06T23:29:27.267Z,14.23
2023-05-06T23:34:52.890Z,14.28
2023-05-06T23:40:18.048Z,14.36
2023-05-06T23:45:42.847Z,14.41
2023-05-06T23:51:07.581Z,14.52
2023-05-06T23:56:32.024Z,14.57
